SAAR/ROS METAR and TAF weather

Enter ICAO airport designator
Station Type Date Time Source
SAAR METAR 2019/02/16 17:00 UTC NOAA

SAAR 161700Z 07006KT 9999 FEW028 28/15 Q1015


Station Type Date Time Source
SAAR Decoded METAR 2019/02/16 17:00 UTC NOAA

Rosario Aerodrome, Argentina (SAAR) 32-55S 060-47W 25M
Feb 16, 2019 - 12:00 PM EST / 2019.02.16 1700 UTC
Wind: from the ENE (070 degrees) at 7 MPH (6 KT):0
Visibility: greater than 7 mile(s):0
Sky conditions: mostly clear
Temperature: 82 F (28 C)
Dew Point: 59 F (15 C)
Relative Humidity: 45%
Pressure (altimeter): 29.97 in. Hg (1015 hPa)
ob: SAAR 161700Z 07006KT 9999 FEW028 28/15 Q1015
cycle: 17

Station Type Date Time Source
SAAR TAF 2019/02/16 12:24 UTC NOAA

TAF TAF SAAR 161100Z 1612/1712 VRB03KT CAVOK TX31/1618Z TN20/1709Z
BECMG 1611/1613 05005KT
BECMG 1620/1623 VRB03KT 9999 FEW035
BECMG 1708/1711 02005KT CAVOK


Example: see airport list